createdAt,value
2018-04-01T00:01:04.089Z,28.50
2018-04-01T00:03:31.716Z,27.50
2018-04-01T00:05:59.328Z,26.77
2018-04-01T00:08:26.988Z,24.20
2018-04-01T00:10:54.585Z,31.15
2018-04-01T00:13:22.295Z,23.58
2018-04-01T00:15:49.877Z,22.40
2018-04-01T00:18:17.474Z,21.93
2018-04-01T00:20:45.083Z,23.40
2018-04-01T00:23:12.771Z,24.73
2018-04-01T00:25:40.447Z,21.93
2018-04-01T00:28:08.108Z,21.60
2018-04-01T00:30:35.701Z,26.70
2018-04-01T00:33:03.347Z,27.92
2018-04-01T00:35:30.969Z,26.17
2018-04-01T00:37:58.580Z,24.63
2018-04-01T00:40:26.192Z,24.13
2018-04-01T00:42:53.824Z,24.37
2018-04-01T00:45:21.461Z,23.62
2018-04-01T00:47:49.061Z,19.17
2018-04-01T00:50:16.670Z,22.97
2018-04-01T00:52:44.256Z,22.67
2018-04-01T00:55:11.872Z,21.40
2018-04-01T00:57:39.484Z,21.03
2018-04-01T01:00:07.076Z,21.70
2018-04-01T01:02:34.685Z,22.50
2018-04-01T01:05:02.299Z,21.70
2018-04-01T01:07:29.895Z,18.87
2018-04-01T01:09:57.491Z,21.40
2018-04-01T01:12:25.090Z,20.43
2018-04-01T01:14:52.742Z,19.23
2018-04-01T01:17:20.324Z,18.30
2018-04-01T01:19:47.930Z,17.75
2018-04-01T01:22:15.559Z,16.80
2018-04-01T01:24:43.160Z,22.63
2018-04-01T01:27:10.796Z,18.50
2018-04-01T01:29:41.587Z,17.97
2018-04-01T01:32:09.182Z,27.70
2018-04-01T01:34:36.784Z,17.87
2018-04-01T01:37:04.385Z,18.47
2018-04-01T01:39:31.993Z,18.83
2018-04-01T01:41:59.647Z,20.27
2018-04-01T01:44:27.248Z,20.67
2018-04-01T01:46:58.068Z,18.40
2018-04-01T01:49:25.824Z,22.87
2018-04-01T01:51:53.424Z,21.70
2018-04-01T01:54:21.021Z,20.23
2018-04-01T01:56:48.635Z,19.70
2018-04-01T01:59:16.255Z,19.70
2018-04-01T02:01:43.839Z,19.57
2018-04-01T02:04:11.447Z,18.93
2018-04-01T02:06:39.047Z,16.95
2018-04-01T02:09:06.727Z,16.47
2018-04-01T02:11:34.315Z,16.40
2018-04-01T02:14:01.900Z,15.90
2018-04-01T02:16:29.509Z,15.83
2018-04-01T02:18:57.103Z,14.87
2018-04-01T02:21:24.720Z,14.67
2018-04-01T02:23:52.328Z,15.67
2018-04-01T02:26:19.938Z,14.83
2018-04-01T02:28:47.616Z,17.00
2018-04-01T02:31:15.217Z,17.15
2018-04-01T02:33:42.835Z,16.43
2018-04-01T02:36:10.420Z,15.10
2018-04-01T02:38:38.019Z,16.23
2018-04-01T02:41:05.712Z,18.30
2018-04-01T02:43:33.332Z,14.75
2018-04-01T02:46:00.907Z,14.73
2018-04-01T02:48:28.506Z,16.23
2018-04-01T02:50:56.110Z,19.50
2018-04-01T02:53:23.716Z,14.13
2018-04-01T02:55:51.363Z,17.07
2018-04-01T02:58:19.007Z,14.80
2018-04-01T03:00:46.607Z,17.77
2018-04-01T03:03:14.218Z,15.50
2018-04-01T03:05:41.841Z,15.13
2018-04-01T03:08:09.436Z,23.93
2018-04-01T03:10:37.044Z,15.97
2018-04-01T03:13:04.658Z,15.20
2018-04-01T03:15:32.274Z,16.00
2018-04-01T03:17:59.874Z,18.05
2018-04-01T03:20:28.739Z,16.97
2018-04-01T03:22:56.338Z,14.93
2018-04-01T03:25:23.943Z,17.35
2018-04-01T03:27:51.552Z,17.60
2018-04-01T03:30:19.130Z,18.67
2018-04-01T03:32:46.940Z,18.03
2018-04-01T03:35:14.543Z,16.50
2018-04-01T03:37:42.152Z,20.07
2018-04-01T03:40:09.772Z,17.43
2018-04-01T03:42:37.360Z,15.97
2018-04-01T03:45:04.962Z,19.07
2018-04-01T03:47:32.578Z,18.50
2018-04-01T03:50:00.197Z,16.60
2018-04-01T03:52:27.787Z,24.75
2018-04-01T03:54:55.392Z,30.37
2018-04-01T03:57:22.983Z,20.70
2018-04-01T03:59:50.589Z,21.77
2018-04-01T04:02:18.207Z,19.20
2018-04-01T04:04:45.811Z,21.47
2018-04-01T04:07:13.396Z,23.70
2018-04-01T04:09:41.007Z,23.73
2018-04-01T04:12:08.599Z,25.50
2018-04-01T04:14:36.247Z,23.87
2018-04-01T04:17:03.842Z,26.93
2018-04-01T04:19:31.464Z,26.77
2018-04-01T04:21:59.104Z,29.58
2018-04-01T04:24:26.720Z,24.13
2018-04-01T04:26:54.310Z,25.70
2018-04-01T04:29:21.900Z,29.17
2018-04-01T04:31:49.500Z,25.30
2018-04-01T04:34:17.092Z,38.40
2018-04-01T04:36:44.692Z,25.87
2018-04-01T04:39:12.299Z,24.50
2018-04-01T04:41:39.890Z,27.87
2018-04-01T04:44:07.536Z,25.00
2018-04-01T04:46:35.168Z,27.40
2018-04-01T04:49:02.755Z,25.27
2018-04-01T04:51:30.379Z,25.73
2018-04-01T04:53:58.041Z,22.40
2018-04-01T04:56:25.678Z,28.83
2018-04-01T04:58:53.294Z,27.10
2018-04-01T05:01:20.880Z,27.37
2018-04-01T05:03:48.472Z,25.50
2018-04-01T05:06:16.070Z,27.90
2018-04-01T05:08:43.701Z,24.20
2018-04-01T05:11:11.325Z,27.67
2018-04-01T05:13:38.936Z,26.37
2018-04-01T05:16:06.556Z,22.43
2018-04-01T05:18:34.145Z,24.93
2018-04-01T05:21:01.750Z,21.30
2018-04-01T05:23:29.392Z,28.00
2018-04-01T05:25:56.998Z,24.00
2018-04-01T05:28:24.612Z,24.43
2018-04-01T05:30:52.205Z,23.57
2018-04-01T05:33:19.797Z,23.07
2018-04-01T05:35:47.387Z,22.83
2018-04-01T05:38:14.995Z,18.83
2018-04-01T05:40:42.591Z,21.53
2018-04-01T05:43:10.187Z,20.90
2018-04-01T05:45:37.963Z,24.40
2018-04-01T05:48:06.411Z,19.90
2018-04-01T05:50:34.040Z,17.83
2018-04-01T05:53:01.684Z,20.40
2018-04-01T05:55:29.477Z,21.17
2018-04-01T05:57:57.076Z,15.33
2018-04-01T06:00:24.686Z,17.37
2018-04-01T06:02:52.306Z,16.53
2018-04-01T06:05:19.940Z,15.13
2018-04-01T06:07:47.536Z,17.23
2018-04-01T06:10:15.173Z,18.03
2018-04-01T06:12:42.763Z,16.30
2018-04-01T06:15:10.394Z,20.73
2018-04-01T06:17:38.133Z,17.00
2018-04-01T06:20:05.721Z,24.17
2018-04-01T06:22:33.343Z,16.03
2018-04-01T06:25:00.965Z,17.03
2018-04-01T06:27:28.575Z,17.50
2018-04-01T06:29:56.263Z,16.17
2018-04-01T06:32:23.848Z,19.40
2018-04-01T06:34:51.468Z,21.00
2018-04-01T06:37:19.259Z,17.42
2018-04-01T06:39:46.863Z,18.67
2018-04-01T06:42:14.460Z,17.33
2018-04-01T06:44:42.100Z,18.43
2018-04-01T06:47:09.724Z,17.42
2018-04-01T06:49:37.322Z,13.93
2018-04-01T06:52:04.974Z,16.47
2018-04-01T06:54:32.585Z,17.83
2018-04-01T06:57:00.244Z,40.13
2018-04-01T06:59:27.981Z,16.57
2018-04-01T07:01:55.592Z,22.83
2018-04-01T07:04:23.227Z,13.80
2018-04-01T07:06:50.845Z,13.73
2018-04-01T07:09:18.463Z,17.02
2018-04-01T07:11:46.067Z,14.37
2018-04-01T07:14:13.762Z,14.00
2018-04-01T07:16:41.427Z,17.97
2018-04-01T07:19:09.859Z,17.92
2018-04-01T07:21:37.518Z,13.60
2018-04-01T07:24:05.126Z,12.87
2018-04-01T07:26:32.752Z,13.13
2018-04-01T07:29:00.499Z,13.00
2018-04-01T07:31:28.113Z,12.37
2018-04-01T07:33:55.715Z,12.60
2018-04-01T07:36:23.408Z,11.03
2018-04-01T07:38:50.976Z,10.50
2018-04-01T07:41:18.599Z,11.38
2018-04-01T07:43:46.199Z,13.57
2018-04-01T07:46:13.805Z,9.40
2018-04-01T07:48:41.421Z,11.40
2018-04-01T07:51:09.645Z,11.43
2018-04-01T07:53:37.228Z,10.87
2018-04-01T07:56:04.856Z,10.10
2018-04-01T07:58:32.500Z,12.50
2018-04-01T08:01:00.097Z,12.43
2018-04-01T08:03:28.048Z,10.70
2018-04-01T08:05:55.812Z,10.13
2018-04-01T08:08:23.424Z,10.20
2018-04-01T08:10:56.262Z,10.90
2018-04-01T08:13:39.244Z,10.87
2018-04-01T08:16:06.914Z,9.83
2018-04-01T08:18:34.555Z,14.17
2018-04-01T08:21:02.282Z,9.47
2018-04-01T08:23:30.857Z,12.57
2018-04-01T08:25:58.547Z,10.60
2018-04-01T08:28:27.132Z,9.50
2018-04-01T08:30:54.715Z,8.17
2018-04-01T08:33:22.351Z,8.73
2018-04-01T08:35:50.040Z,10.20
2018-04-01T08:38:17.655Z,9.80
2018-04-01T08:40:45.245Z,9.57
2018-04-01T08:43:13.112Z,9.03
2018-04-01T08:45:40.748Z,9.00
2018-04-01T08:48:08.370Z,18.13
2018-04-01T08:50:36.071Z,9.83
2018-04-01T08:53:04.728Z,9.77
2018-04-01T08:55:32.384Z,10.03
2018-04-01T08:58:00.396Z,9.20
2018-04-01T09:00:28.154Z,11.07
2018-04-01T09:02:57.580Z,9.23
2018-04-01T09:05:26.417Z,10.00
2018-04-01T09:08:02.455Z,10.20
2018-04-01T09:10:30.304Z,12.57
2018-04-01T09:12:57.903Z,11.07
2018-04-01T09:15:25.505Z,11.00
2018-04-01T09:17:53.217Z,10.27
2018-04-01T09:20:20.845Z,9.97
2018-04-01T09:22:48.452Z,9.73
2018-04-01T09:25:17.071Z,9.18
2018-04-01T09:27:44.727Z,9.37
2018-04-01T09:30:14.178Z,9.53
2018-04-01T09:32:43.868Z,9.40
2018-04-01T09:35:11.564Z,8.57
2018-04-01T09:37:39.156Z,8.70
2018-04-01T09:40:07.234Z,9.33
2018-04-01T09:42:35.611Z,8.23
2018-04-01T09:45:03.240Z,8.63
2018-04-01T09:47:31.518Z,8.05
2018-04-01T09:49:59.284Z,9.63
2018-04-01T09:52:27.003Z,7.90
2018-04-01T09:54:54.768Z,7.90
2018-04-01T09:57:22.468Z,9.75
2018-04-01T09:59:50.056Z,9.27
2018-04-01T10:02:18.272Z,8.33
2018-04-01T10:04:46.384Z,8.33
2018-04-01T10:07:21.990Z,8.70
2018-04-01T10:09:50.256Z,8.53
2018-04-01T10:12:18.411Z,8.25
2018-04-01T10:14:46.669Z,8.10
2018-04-01T10:17:15.746Z,9.73
2018-04-01T10:19:43.977Z,8.10
2018-04-01T10:22:12.782Z,6.70
2018-04-01T10:24:40.938Z,8.90
2018-04-01T10:27:09.144Z,8.83
2018-04-01T10:29:37.324Z,8.87
2018-04-01T10:32:06.021Z,9.13
2018-04-01T10:34:34.161Z,7.83
2018-04-01T10:37:02.298Z,8.83
2018-04-01T10:39:30.414Z,9.77
2018-04-01T10:41:58.556Z,8.60
2018-04-01T10:44:26.715Z,8.37
2018-04-01T10:46:55.643Z,8.63
2018-04-01T10:49:24.753Z,8.73
2018-04-01T10:51:52.924Z,9.03
2018-04-01T10:54:20.536Z,9.50
2018-04-01T10:56:48.215Z,10.70
2018-04-01T10:59:15.793Z,9.57
2018-04-01T11:01:43.651Z,9.30
2018-04-01T11:04:11.940Z,7.77
2018-04-01T11:06:39.605Z,7.85
2018-04-01T11:09:07.893Z,7.87
2018-04-01T11:11:35.565Z,6.50
2018-04-01T11:14:04.360Z,6.20
2018-04-01T11:16:34.850Z,5.97
2018-04-01T11:19:04.753Z,5.33
2018-04-01T11:21:33.715Z,6.27
2018-04-01T11:24:15.473Z,5.43
2018-04-01T11:26:51.963Z,6.40
2018-04-01T11:29:28.382Z,6.10
2018-04-01T11:35:49.083Z,7.50
2018-04-01T11:38:16.722Z,7.70
2018-04-01T11:40:44.588Z,6.97
2018-04-01T11:43:13.694Z,6.80
2018-04-01T11:45:41.353Z,7.70
2018-04-01T11:48:09.034Z,8.07
2018-04-01T11:50:38.111Z,8.20
2018-04-01T11:53:09.853Z,7.43
2018-04-01T11:55:37.709Z,7.20
2018-04-01T11:58:07.194Z,8.13
2018-04-01T12:00:34.901Z,8.63
2018-04-01T12:03:02.941Z,8.03
2018-04-01T12:05:30.746Z,7.60
2018-04-01T12:07:59.414Z,8.87
2018-04-01T12:10:36.446Z,13.00
2018-04-01T12:13:05.604Z,7.47
2018-04-01T12:15:36.092Z,6.90
2018-04-01T12:18:05.499Z,7.27
2018-04-01T12:24:13.072Z,7.50
2018-04-01T12:26:42.979Z,7.07
2018-04-01T12:29:11.144Z,7.10
2018-04-01T12:31:43.262Z,5.32
2018-04-01T12:36:54.764Z,5.13
2018-04-01T12:43:01.793Z,5.82
2018-04-01T12:45:32.754Z,5.93
2018-04-01T12:48:02.410Z,5.33
2018-04-01T12:53:55.876Z,4.33
2018-04-01T12:56:28.546Z,4.80
2018-04-01T12:58:59.376Z,3.63
2018-04-01T13:01:29.978Z,4.37
2018-04-01T13:04:36.763Z,3.50
2018-04-01T13:07:10.595Z,7.37
2018-04-01T13:13:21.034Z,10.35
2018-04-01T13:23:16.469Z,3.20
2018-04-01T13:25:45.577Z,3.10
2018-04-01T13:28:25.041Z,2.97
2018-04-01T13:31:05.742Z,3.00
2018-04-01T13:33:40.640Z,3.03
2018-04-01T13:36:11.429Z,2.40
2018-04-01T13:38:42.820Z,6.05
2018-04-01T13:41:11.811Z,3.78
2018-04-01T13:49:55.877Z,3.13
2018-04-01T13:52:49.642Z,2.63
2018-04-01T13:55:36.281Z,3.33
2018-04-01T13:58:06.687Z,2.60
2018-04-01T14:00:35.239Z,2.73
2018-04-01T14:03:06.173Z,2.83
2018-04-01T14:05:36.282Z,3.37
2018-04-01T14:12:03.507Z,4.30
2018-04-01T14:14:32.084Z,3.50
2018-04-01T14:16:59.684Z,2.73
2018-04-01T14:19:27.347Z,3.17
2018-04-01T14:21:54.976Z,2.33
2018-04-01T14:24:22.671Z,2.60
2018-04-01T14:26:52.791Z,2.30
2018-04-01T14:29:20.519Z,2.20
2018-04-01T14:31:48.689Z,1.63
2018-04-01T14:34:17.089Z,1.47
2018-04-01T14:37:02.320Z,3.15
2018-04-01T14:55:51.178Z,1.20
2018-04-01T14:58:30.304Z,1.30
2018-04-01T15:08:39.769Z,1.23
2018-04-01T15:15:03.016Z,1.50
2018-04-01T15:58:54.764Z,2.47
2018-04-01T16:01:23.904Z,2.67
2018-04-01T16:04:24.034Z,4.43
2018-04-01T16:09:57.529Z,3.50
2018-04-01T16:12:25.234Z,3.40
2018-04-01T16:14:59.224Z,3.90
2018-04-01T16:17:26.874Z,3.67
2018-04-01T16:19:54.649Z,3.80
2018-04-01T16:22:22.983Z,3.67
2018-04-01T16:24:50.927Z,4.50
2018-04-01T16:27:18.574Z,1.87
2018-04-01T16:29:46.240Z,1.67
2018-04-01T16:32:13.908Z,1.90
2018-04-01T16:34:45.952Z,1.67
2018-04-01T16:37:13.663Z,1.90
2018-04-01T16:39:41.341Z,3.20
2018-04-01T16:42:16.260Z,4.10
2018-04-01T16:58:37.844Z,1.60
2018-04-01T17:05:09.040Z,2.10
2018-04-01T17:07:48.293Z,1.90
2018-04-01T17:10:16.063Z,1.80
2018-04-01T17:12:47.790Z,4.18
2018-04-01T17:15:22.897Z,4.12
2018-04-01T17:17:51.683Z,2.87
2018-04-01T17:21:09.295Z,2.40
2018-04-01T17:23:38.968Z,1.90
2018-04-01T17:26:07.805Z,2.10
2018-04-01T17:28:35.458Z,2.53
2018-04-01T17:31:05.548Z,4.30
2018-04-01T17:33:34.263Z,3.70
2018-04-01T17:36:01.963Z,4.37
2018-04-01T17:38:30.383Z,2.27
2018-04-01T17:40:58.027Z,3.10
2018-04-01T17:43:29.524Z,5.10
2018-04-01T17:46:07.131Z,1.37
2018-04-01T17:48:35.055Z,2.43
2018-04-01T17:51:02.702Z,2.37
2018-04-01T17:53:31.946Z,1.50
2018-04-01T17:56:00.059Z,2.20
2018-04-01T17:58:27.745Z,2.20
2018-04-01T18:00:55.456Z,1.60
2018-04-01T18:03:23.073Z,2.00
2018-04-01T18:05:50.713Z,2.70
2018-04-01T18:08:18.297Z,2.90
2018-04-01T18:10:45.895Z,2.20
2018-04-01T18:13:14.151Z,1.70
2018-04-01T18:15:43.090Z,1.80
2018-04-01T18:18:10.703Z,18.40
2018-04-01T18:20:38.346Z,9.50
2018-04-01T18:23:06.087Z,4.23
2018-04-01T18:25:33.774Z,83.25
2018-04-01T18:28:01.477Z,2.40
2018-04-01T18:30:29.174Z,3.33
2018-04-01T18:32:56.760Z,2.23
2018-04-01T18:35:24.415Z,3.90
2018-04-01T18:37:52.026Z,1.87
2018-04-01T18:40:19.630Z,2.07
2018-04-01T18:42:47.375Z,2.20
2018-04-01T18:45:14.989Z,2.70
2018-04-01T18:47:42.662Z,2.30
2018-04-01T18:50:10.271Z,2.23
2018-04-01T18:52:37.948Z,2.15
2018-04-01T18:55:05.580Z,2.30
2018-04-01T18:57:33.240Z,3.90
2018-04-01T19:00:00.845Z,3.70
2018-04-01T19:02:28.570Z,2.77
2018-04-01T19:04:58.936Z,2.50
2018-04-01T19:07:27.467Z,2.33
2018-04-01T19:09:55.237Z,2.90
2018-04-01T19:12:22.940Z,2.60
2018-04-01T19:14:50.868Z,4.60
2018-04-01T19:17:19.139Z,2.97
2018-04-01T19:19:47.486Z,3.17
2018-04-01T19:22:19.733Z,3.28
2018-04-01T19:24:47.980Z,4.33
2018-04-01T19:27:17.344Z,4.57
2018-04-01T19:29:45.547Z,6.17
2018-04-01T19:32:13.690Z,3.40
2018-04-01T19:34:41.953Z,5.50
2018-04-01T19:37:12.001Z,4.50
2018-04-01T19:39:40.257Z,3.63
2018-04-01T19:42:09.091Z,3.70
2018-04-01T19:44:37.325Z,3.53
2018-04-01T19:47:05.612Z,3.00
2018-04-01T19:49:33.806Z,2.70
2018-04-01T19:52:01.972Z,2.23
2018-04-01T19:54:30.120Z,3.33
2018-04-01T19:56:58.556Z,2.90
2018-04-01T19:59:26.795Z,4.20
2018-04-01T20:01:55.002Z,3.20
2018-04-01T20:04:23.131Z,3.57
2018-04-01T20:06:51.322Z,3.70
2018-04-01T20:09:19.419Z,3.22
2018-04-01T20:11:47.598Z,3.63
2018-04-01T20:14:15.989Z,3.70
2018-04-01T20:16:44.160Z,3.10
2018-04-01T20:19:12.377Z,4.43
2018-04-01T20:21:40.510Z,4.27
2018-04-01T20:24:08.702Z,4.57
2018-04-01T20:26:37.110Z,4.60
2018-04-01T20:29:05.625Z,4.37
2018-04-01T20:31:33.902Z,5.13
2018-04-01T20:34:02.111Z,4.20
2018-04-01T20:36:30.300Z,4.87
2018-04-01T20:38:58.460Z,4.80
2018-04-01T20:41:26.624Z,4.53
2018-04-01T20:43:54.785Z,4.67
2018-04-01T20:46:22.962Z,4.47
2018-04-01T20:48:51.143Z,4.40
2018-04-01T20:51:19.272Z,5.55
2018-04-01T20:53:47.423Z,5.45
2018-04-01T20:56:15.561Z,5.23
2018-04-01T20:58:43.707Z,4.97
2018-04-01T21:01:11.864Z,6.00
2018-04-01T21:03:39.992Z,7.10
2018-04-01T21:06:08.176Z,6.30
2018-04-01T21:08:36.349Z,5.47
2018-04-01T21:11:06.361Z,5.80
2018-04-01T21:13:34.587Z,4.97
2018-04-01T21:16:02.766Z,6.62
2018-04-01T21:18:30.911Z,7.13
2018-04-01T21:20:59.033Z,7.27
2018-04-01T21:23:27.221Z,6.45
2018-04-01T21:25:55.320Z,6.47
2018-04-01T21:28:23.452Z,7.18
2018-04-01T21:30:51.588Z,7.10
2018-04-01T21:33:19.746Z,7.50
2018-04-01T21:35:47.940Z,6.77
2018-04-01T21:38:16.183Z,6.93
2018-04-01T21:40:44.301Z,7.53
2018-04-01T21:43:12.483Z,6.70
2018-04-01T21:45:40.624Z,7.60
2018-04-01T21:48:08.740Z,7.13
2018-04-01T21:50:36.892Z,7.57
2018-04-01T21:53:05.028Z,7.10
2018-04-01T21:55:33.156Z,7.18
2018-04-01T21:58:01.321Z,7.43
2018-04-01T22:00:29.492Z,6.43
2018-04-01T22:02:57.608Z,10.23
2018-04-01T22:05:25.748Z,6.93
2018-04-01T22:07:53.883Z,6.60
2018-04-01T22:10:22.005Z,7.23
2018-04-01T22:12:50.141Z,7.67
2018-04-01T22:15:18.284Z,8.02
2018-04-01T22:17:46.733Z,7.80
2018-04-01T22:20:16.748Z,7.83
2018-04-01T22:22:56.552Z,8.73
2018-04-01T22:25:24.727Z,7.07
2018-04-01T22:27:53.625Z,7.50
2018-04-01T22:30:22.566Z,8.73
2018-04-01T22:32:50.691Z,7.63
2018-04-01T22:35:19.177Z,7.25
2018-04-01T22:37:47.287Z,8.97
2018-04-01T22:40:15.429Z,7.00
2018-04-01T22:42:43.580Z,8.67
2018-04-01T22:45:11.729Z,7.47
2018-04-01T22:47:39.862Z,7.93
2018-04-01T22:50:07.999Z,8.63
2018-04-01T22:52:36.206Z,8.00
2018-04-01T22:55:04.381Z,9.27
2018-04-01T22:57:32.513Z,9.57
2018-04-01T23:00:00.637Z,8.40
2018-04-01T23:02:28.745Z,8.87
2018-04-01T23:04:56.884Z,9.50
2018-04-01T23:07:24.996Z,8.07
2018-04-01T23:09:53.164Z,8.40
2018-04-01T23:12:21.306Z,8.20
2018-04-01T23:14:49.427Z,8.87
2018-04-01T23:17:17.553Z,8.97
2018-04-01T23:19:45.695Z,8.33
2018-04-01T23:22:13.803Z,7.63
2018-04-01T23:24:42.852Z,7.80
2018-04-01T23:27:10.976Z,7.85
2018-04-01T23:29:39.110Z,7.33
2018-04-01T23:32:07.225Z,8.10
2018-04-01T23:34:35.372Z,7.17
2018-04-01T23:37:03.487Z,7.80
2018-04-01T23:39:31.679Z,8.70
2018-04-01T23:41:59.885Z,8.37
2018-04-01T23:44:28.020Z,9.50
2018-04-01T23:46:56.145Z,9.40
2018-04-01T23:49:24.327Z,8.30
2018-04-01T23:51:52.504Z,8.97
2018-04-01T23:54:20.635Z,9.53
2018-04-01T23:56:48.752Z,9.10
2018-04-01T23:59:16.898Z,9.27
